sensor_id;sensor_type;location;lat;lon;timestamp;P1;durP1;ratioP1;P2;durP2;ratioP2
37284;SDS011;23172;53.550;9.964;2023-02-24T00:04:29;4.80;;;3.25;;
37284;SDS011;23172;53.550;9.964;2023-02-24T00:09:32;3.08;;;2.03;;
37284;SDS011;23172;53.550;9.964;2023-02-24T00:14:35;4.15;;;1.73;;
37284;SDS011;23172;53.550;9.964;2023-02-24T00:19:39;5.72;;;1.98;;
37284;SDS011;23172;53.550;9.964;2023-02-24T00:24:41;3.05;;;2.03;;
37284;SDS011;23172;53.550;9.964;2023-02-24T00:29:43;3.80;;;1.52;;
37284;SDS011;23172;53.550;9.964;2023-02-24T00:34:48;3.42;;;1.38;;
37284;SDS011;23172;53.550;9.964;2023-02-24T00:39:50;4.93;;;1.60;;
37284;SDS011;23172;53.550;9.964;2023-02-24T00:44:57;3.55;;;1.35;;
37284;SDS011;23172;53.550;9.964;2023-02-24T00:50:00;6.35;;;2.83;;
37284;SDS011;23172;53.550;9.964;2023-02-24T00:55:02;4.35;;;3.17;;
37284;SDS011;23172;53.550;9.964;2023-02-24T01:00:13;6.88;;;2.60;;
37284;SDS011;23172;53.550;9.964;2023-02-24T01:05:16;7.63;;;2.55;;
37284;SDS011;23172;53.550;9.964;2023-02-24T01:10:19;7.47;;;2.15;;
37284;SDS011;23172;53.550;9.964;2023-02-24T01:15:22;4.13;;;1.75;;
37284;SDS011;23172;53.550;9.964;2023-02-24T01:20:26;8.77;;;3.58;;
37284;SDS011;23172;53.550;9.964;2023-02-24T01:25:29;6.05;;;3.85;;
37284;SDS011;23172;53.550;9.964;2023-02-24T01:30:31;7.32;;;3.45;;
37284;SDS011;23172;53.550;9.964;2023-02-24T01:35:34;5.35;;;2.42;;
37284;SDS011;23172;53.550;9.964;2023-02-24T01:40:36;7.22;;;1.70;;
37284;SDS011;23172;53.550;9.964;2023-02-24T01:45:38;5.88;;;1.60;;
37284;SDS011;23172;53.550;9.964;2023-02-24T01:50:41;8.95;;;3.53;;
37284;SDS011;23172;53.550;9.964;2023-02-24T01:55:45;6.82;;;1.98;;
37284;SDS011;23172;53.550;9.964;2023-02-24T02:00:50;7.63;;;3.25;;
37284;SDS011;23172;53.550;9.964;2023-02-24T02:05:55;6.05;;;2.40;;
37284;SDS011;23172;53.550;9.964;2023-02-24T02:11:02;10.10;;;3.97;;
37284;SDS011;23172;53.550;9.964;2023-02-24T02:16:13;4.68;;;2.22;;
37284;SDS011;23172;53.550;9.964;2023-02-24T02:21:53;8.13;;;3.25;;
37284;SDS011;23172;53.550;9.964;2023-02-24T02:27:21;7.60;;;2.15;;
37284;SDS011;23172;53.550;9.964;2023-02-24T02:38:29;7.82;;;2.95;;
37284;SDS011;23172;53.550;9.964;2023-02-24T02:43:37;6.60;;;2.97;;
37284;SDS011;23172;53.550;9.964;2023-02-24T02:48:45;6.10;;;1.92;;
37284;SDS011;23172;53.550;9.964;2023-02-24T02:53:54;6.82;;;4.85;;
37284;SDS011;23172;53.550;9.964;2023-02-24T02:59:01;3.90;;;2.70;;
37284;SDS011;23172;53.550;9.964;2023-02-24T03:04:06;7.50;;;3.40;;
37284;SDS011;23172;53.550;9.964;2023-02-24T03:09:13;9.20;;;3.67;;
37284;SDS011;23172;53.550;9.964;2023-02-24T03:14:21;6.28;;;1.67;;
37284;SDS011;23172;53.550;9.964;2023-02-24T03:19:27;5.65;;;2.08;;
37284;SDS011;23172;53.550;9.964;2023-02-24T03:24:37;8.05;;;3.38;;
37284;SDS011;23172;53.550;9.964;2023-02-24T03:29:41;7.45;;;3.45;;
37284;SDS011;23172;53.550;9.964;2023-02-24T03:34:49;5.13;;;2.30;;
37284;SDS011;23172;53.550;9.964;2023-02-24T03:39:57;4.65;;;1.95;;
37284;SDS011;23172;53.550;9.964;2023-02-24T03:45:07;3.70;;;1.95;;
37284;SDS011;23172;53.550;9.964;2023-02-24T03:50:10;5.00;;;2.47;;
37284;SDS011;23172;53.550;9.964;2023-02-24T03:55:16;5.90;;;3.15;;
37284;SDS011;23172;53.550;9.964;2023-02-24T04:00:29;8.40;;;4.90;;
37284;SDS011;23172;53.550;9.964;2023-02-24T04:05:38;4.68;;;1.88;;
37284;SDS011;23172;53.550;9.964;2023-02-24T04:10:49;5.35;;;2.38;;
37284;SDS011;23172;53.550;9.964;2023-02-24T04:15:58;4.35;;;1.80;;
37284;SDS011;23172;53.550;9.964;2023-02-24T04:21:04;6.30;;;3.25;;
37284;SDS011;23172;53.550;9.964;2023-02-24T04:26:08;6.60;;;3.45;;
37284;SDS011;23172;53.550;9.964;2023-02-24T04:31:12;6.28;;;4.07;;
37284;SDS011;23172;53.550;9.964;2023-02-24T04:36:16;8.43;;;4.20;;
37284;SDS011;23172;53.550;9.964;2023-02-24T04:41:20;6.05;;;2.70;;
37284;SDS011;23172;53.550;9.964;2023-02-24T04:46:22;10.20;;;2.78;;
37284;SDS011;23172;53.550;9.964;2023-02-24T04:51:23;6.50;;;1.67;;
37284;SDS011;23172;53.550;9.964;2023-02-24T04:56:27;3.88;;;1.77;;
37284;SDS011;23172;53.550;9.964;2023-02-24T05:01:29;4.22;;;1.05;;
37284;SDS011;23172;53.550;9.964;2023-02-24T05:06:31;8.65;;;3.80;;
37284;SDS011;23172;53.550;9.964;2023-02-24T05:11:35;6.40;;;1.50;;
37284;SDS011;23172;53.550;9.964;2023-02-24T05:16:37;4.40;;;1.67;;
37284;SDS011;23172;53.550;9.964;2023-02-24T05:21:38;6.43;;;1.40;;
37284;SDS011;23172;53.550;9.964;2023-02-24T05:26:42;9.93;;;4.13;;
37284;SDS011;23172;53.550;9.964;2023-02-24T05:31:44;4.10;;;1.40;;
37284;SDS011;23172;53.550;9.964;2023-02-24T05:36:46;7.13;;;2.22;;
37284;SDS011;23172;53.550;9.964;2023-02-24T05:41:49;6.00;;;2.35;;
37284;SDS011;23172;53.550;9.964;2023-02-24T05:46:54;4.75;;;1.40;;
37284;SDS011;23172;53.550;9.964;2023-02-24T05:51:58;3.80;;;1.52;;
37284;SDS011;23172;53.550;9.964;2023-02-24T05:57:04;4.90;;;1.50;;
37284;SDS011;23172;53.550;9.964;2023-02-24T06:02:08;5.20;;;1.88;;
37284;SDS011;23172;53.550;9.964;2023-02-24T06:07:12;5.93;;;1.80;;
37284;SDS011;23172;53.550;9.964;2023-02-24T06:12:19;7.00;;;1.70;;
37284;SDS011;23172;53.550;9.964;2023-02-24T06:17:23;8.13;;;1.90;;
37284;SDS011;23172;53.550;9.964;2023-02-24T06:22:25;5.25;;;1.20;;
37284;SDS011;23172;53.550;9.964;2023-02-24T06:27:29;4.13;;;1.77;;
37284;SDS011;23172;53.550;9.964;2023-02-24T06:32:32;4.05;;;1.70;;
37284;SDS011;23172;53.550;9.964;2023-02-24T06:37:35;7.00;;;2.35;;
37284;SDS011;23172;53.550;9.964;2023-02-24T06:42:39;6.50;;;1.70;;
37284;SDS011;23172;53.550;9.964;2023-02-24T06:52:48;5.22;;;2.05;;
37284;SDS011;23172;53.550;9.964;2023-02-24T06:57:54;6.03;;;2.15;;
37284;SDS011;23172;53.550;9.964;2023-02-24T07:02:57;4.55;;;1.67;;
37284;SDS011;23172;53.550;9.964;2023-02-24T07:08:00;5.75;;;2.00;;
37284;SDS011;23172;53.550;9.964;2023-02-24T07:13:04;4.32;;;1.58;;
37284;SDS011;23172;53.550;9.964;2023-02-24T07:18:06;5.20;;;1.97;;
37284;SDS011;23172;53.550;9.964;2023-02-24T07:23:14;5.20;;;1.55;;
37284;SDS011;23172;53.550;9.964;2023-02-24T07:33:20;4.27;;;1.97;;
37284;SDS011;23172;53.550;9.964;2023-02-24T07:38:22;3.28;;;1.70;;
37284;SDS011;23172;53.550;9.964;2023-02-24T07:43:25;6.03;;;2.30;;
37284;SDS011;23172;53.550;9.964;2023-02-24T07:48:27;4.57;;;2.00;;
37284;SDS011;23172;53.550;9.964;2023-02-24T07:53:30;5.82;;;2.22;;
37284;SDS011;23172;53.550;9.964;2023-02-24T07:58:33;6.90;;;2.10;;
37284;SDS011;23172;53.550;9.964;2023-02-24T08:03:35;5.22;;;1.92;;
37284;SDS011;23172;53.550;9.964;2023-02-24T08:08:41;4.45;;;2.20;;
37284;SDS011;23172;53.550;9.964;2023-02-24T08:13:59;5.63;;;2.20;;
37284;SDS011;23172;53.550;9.964;2023-02-24T08:19:01;4.15;;;2.20;;
37284;SDS011;23172;53.550;9.964;2023-02-24T08:24:04;4.38;;;2.55;;
37284;SDS011;23172;53.550;9.964;2023-02-24T08:29:07;7.03;;;3.20;;
37284;SDS011;23172;53.550;9.964;2023-02-24T08:34:09;5.18;;;4.35;;
37284;SDS011;23172;53.550;9.964;2023-02-24T08:39:15;7.95;;;5.68;;
37284;SDS011;23172;53.550;9.964;2023-02-24T08:44:19;7.65;;;5.90;;
37284;SDS011;23172;53.550;9.964;2023-02-24T08:49:22;7.32;;;5.25;;
37284;SDS011;23172;53.550;9.964;2023-02-24T08:54:24;6.80;;;5.45;;
37284;SDS011;23172;53.550;9.964;2023-02-24T08:59:28;5.95;;;4.70;;
37284;SDS011;23172;53.550;9.964;2023-02-24T09:04:37;5.57;;;4.25;;
37284;SDS011;23172;53.550;9.964;2023-02-24T09:09:39;4.72;;;3.83;;
37284;SDS011;23172;53.550;9.964;2023-02-24T09:14:42;5.65;;;3.63;;
37284;SDS011;23172;53.550;9.964;2023-02-24T09:19:45;5.97;;;3.33;;
37284;SDS011;23172;53.550;9.964;2023-02-24T09:25:07;5.07;;;3.00;;
37284;SDS011;23172;53.550;9.964;2023-02-24T09:30:26;4.60;;;3.58;;
37284;SDS011;23172;53.550;9.964;2023-02-24T09:35:51;5.15;;;3.55;;
37284;SDS011;23172;53.550;9.964;2023-02-24T09:41:12;4.90;;;3.60;;
37284;SDS011;23172;53.550;9.964;2023-02-24T09:46:32;4.88;;;3.42;;
37284;SDS011;23172;53.550;9.964;2023-02-24T09:51:38;5.43;;;3.95;;
37284;SDS011;23172;53.550;9.964;2023-02-24T09:56:45;5.10;;;3.58;;
37284;SDS011;23172;53.550;9.964;2023-02-24T10:02:00;4.65;;;3.58;;
37284;SDS011;23172;53.550;9.964;2023-02-24T10:07:15;5.20;;;3.80;;
37284;SDS011;23172;53.550;9.964;2023-02-24T10:12:21;6.80;;;3.60;;
37284;SDS011;23172;53.550;9.964;2023-02-24T10:17:31;4.72;;;3.92;;
37284;SDS011;23172;53.550;9.964;2023-02-24T10:22:39;4.57;;;4.00;;
37284;SDS011;23172;53.550;9.964;2023-02-24T10:27:52;5.45;;;4.22;;
37284;SDS011;23172;53.550;9.964;2023-02-24T10:33:03;5.05;;;3.97;;
37284;SDS011;23172;53.550;9.964;2023-02-24T10:38:14;5.93;;;3.97;;
37284;SDS011;23172;53.550;9.964;2023-02-24T10:43:17;5.03;;;4.40;;
37284;SDS011;23172;53.550;9.964;2023-02-24T10:48:30;5.53;;;3.70;;
37284;SDS011;23172;53.550;9.964;2023-02-24T10:53:37;4.55;;;4.10;;
37284;SDS011;23172;53.550;9.964;2023-02-24T10:58:43;5.95;;;4.53;;
37284;SDS011;23172;53.550;9.964;2023-02-24T11:03:58;4.70;;;4.00;;
37284;SDS011;23172;53.550;9.964;2023-02-24T11:09:22;8.38;;;5.32;;
37284;SDS011;23172;53.550;9.964;2023-02-24T11:14:35;7.40;;;4.22;;
37284;SDS011;23172;53.550;9.964;2023-02-24T11:20:14;7.78;;;5.07;;
37284;SDS011;23172;53.550;9.964;2023-02-24T11:25:24;6.97;;;4.07;;
37284;SDS011;23172;53.550;9.964;2023-02-24T11:30:34;4.85;;;3.88;;
37284;SDS011;23172;53.550;9.964;2023-02-24T11:35:46;5.05;;;4.00;;
37284;SDS011;23172;53.550;9.964;2023-02-24T11:40:58;13.20;;;9.02;;
37284;SDS011;23172;53.550;9.964;2023-02-24T11:46:06;5.25;;;3.80;;
37284;SDS011;23172;53.550;9.964;2023-02-24T11:51:15;4.38;;;3.47;;
37284;SDS011;23172;53.550;9.964;2023-02-24T11:56:20;4.97;;;3.40;;
37284;SDS011;23172;53.550;9.964;2023-02-24T12:01:26;3.85;;;3.38;;
37284;SDS011;23172;53.550;9.964;2023-02-24T12:06:34;5.80;;;3.35;;
37284;SDS011;23172;53.550;9.964;2023-02-24T12:11:42;8.55;;;5.78;;
37284;SDS011;23172;53.550;9.964;2023-02-24T12:16:51;10.85;;;6.28;;
37284;SDS011;23172;53.550;9.964;2023-02-24T12:22:01;6.07;;;3.90;;
37284;SDS011;23172;53.550;9.964;2023-02-24T12:27:12;6.93;;;4.65;;
37284;SDS011;23172;53.550;9.964;2023-02-24T12:32:23;11.20;;;7.32;;
37284;SDS011;23172;53.550;9.964;2023-02-24T12:42:59;9.15;;;5.47;;
37284;SDS011;23172;53.550;9.964;2023-02-24T12:48:10;7.30;;;5.07;;
37284;SDS011;23172;53.550;9.964;2023-02-24T12:53:35;16.20;;;10.70;;
37284;SDS011;23172;53.550;9.964;2023-02-24T12:58:44;18.33;;;10.90;;
37284;SDS011;23172;53.550;9.964;2023-02-24T13:03:52;13.13;;;6.25;;
37284;SDS011;23172;53.550;9.964;2023-02-24T13:09:04;7.75;;;4.30;;
37284;SDS011;23172;53.550;9.964;2023-02-24T13:14:16;8.98;;;4.78;;
37284;SDS011;23172;53.550;9.964;2023-02-24T13:19:27;8.50;;;4.30;;
37284;SDS011;23172;53.550;9.964;2023-02-24T13:24:31;9.15;;;4.85;;
37284;SDS011;23172;53.550;9.964;2023-02-24T13:29:43;12.63;;;5.40;;
37284;SDS011;23172;53.550;9.964;2023-02-24T13:34:46;10.73;;;4.88;;
37284;SDS011;23172;53.550;9.964;2023-02-24T13:39:52;8.93;;;4.57;;
37284;SDS011;23172;53.550;9.964;2023-02-24T13:45:00;8.60;;;4.60;;
37284;SDS011;23172;53.550;9.964;2023-02-24T13:50:10;8.80;;;4.50;;
37284;SDS011;23172;53.550;9.964;2023-02-24T13:55:26;9.20;;;4.22;;
37284;SDS011;23172;53.550;9.964;2023-02-24T14:00:41;11.25;;;3.28;;
37284;SDS011;23172;53.550;9.964;2023-02-24T14:05:56;8.48;;;2.50;;
37284;SDS011;23172;53.550;9.964;2023-02-24T14:11:03;8.63;;;2.88;;
37284;SDS011;23172;53.550;9.964;2023-02-24T14:16:09;7.60;;;3.08;;
37284;SDS011;23172;53.550;9.964;2023-02-24T14:21:18;9.77;;;2.88;;
37284;SDS011;23172;53.550;9.964;2023-02-24T14:26:23;9.18;;;3.05;;
37284;SDS011;23172;53.550;9.964;2023-02-24T14:31:26;5.60;;;2.10;;
37284;SDS011;23172;53.550;9.964;2023-02-24T14:36:30;7.63;;;2.85;;
37284;SDS011;23172;53.550;9.964;2023-02-24T14:41:37;7.97;;;2.40;;
37284;SDS011;23172;53.550;9.964;2023-02-24T14:46:44;7.07;;;2.38;;
37284;SDS011;23172;53.550;9.964;2023-02-24T14:51:48;13.07;;;4.35;;
37284;SDS011;23172;53.550;9.964;2023-02-24T14:56:56;9.93;;;4.65;;
37284;SDS011;23172;53.550;9.964;2023-02-24T15:01:59;11.20;;;5.80;;
37284;SDS011;23172;53.550;9.964;2023-02-24T15:07:04;8.43;;;3.15;;
37284;SDS011;23172;53.550;9.964;2023-02-24T15:12:20;7.95;;;2.42;;
37284;SDS011;23172;53.550;9.964;2023-02-24T15:17:28;6.38;;;2.30;;
37284;SDS011;23172;53.550;9.964;2023-02-24T15:22:31;7.55;;;3.30;;
37284;SDS011;23172;53.550;9.964;2023-02-24T15:27:48;3.75;;;2.20;;
37284;SDS011;23172;53.550;9.964;2023-02-24T15:32:57;7.15;;;2.65;;
37284;SDS011;23172;53.550;9.964;2023-02-24T15:38:02;18.58;;;9.65;;
37284;SDS011;23172;53.550;9.964;2023-02-24T15:43:08;9.68;;;5.32;;
37284;SDS011;23172;53.550;9.964;2023-02-24T15:48:18;9.50;;;4.05;;
37284;SDS011;23172;53.550;9.964;2023-02-24T15:53:21;10.18;;;3.55;;
37284;SDS011;23172;53.550;9.964;2023-02-24T15:58:24;7.97;;;3.88;;
37284;SDS011;23172;53.550;9.964;2023-02-24T16:03:26;7.40;;;3.50;;
37284;SDS011;23172;53.550;9.964;2023-02-24T16:08:28;9.90;;;3.72;;
37284;SDS011;23172;53.550;9.964;2023-02-24T16:13:32;5.82;;;2.83;;
37284;SDS011;23172;53.550;9.964;2023-02-24T16:18:33;8.77;;;2.80;;
37284;SDS011;23172;53.550;9.964;2023-02-24T16:23:35;7.18;;;2.47;;
37284;SDS011;23172;53.550;9.964;2023-02-24T16:28:41;7.03;;;2.60;;
37284;SDS011;23172;53.550;9.964;2023-02-24T16:33:43;7.32;;;1.80;;
37284;SDS011;23172;53.550;9.964;2023-02-24T16:38:45;12.10;;;5.80;;
37284;SDS011;23172;53.550;9.964;2023-02-24T16:43:51;11.40;;;4.60;;
37284;SDS011;23172;53.550;9.964;2023-02-24T16:48:53;9.23;;;3.38;;
37284;SDS011;23172;53.550;9.964;2023-02-24T16:53:55;9.38;;;3.47;;
37284;SDS011;23172;53.550;9.964;2023-02-24T16:58:58;6.75;;;3.00;;
37284;SDS011;23172;53.550;9.964;2023-02-24T17:04:00;9.60;;;2.85;;
37284;SDS011;23172;53.550;9.964;2023-02-24T17:09:04;9.30;;;3.42;;
37284;SDS011;23172;53.550;9.964;2023-02-24T17:14:08;13.70;;;3.20;;
37284;SDS011;23172;53.550;9.964;2023-02-24T17:19:14;10.48;;;2.65;;
37284;SDS011;23172;53.550;9.964;2023-02-24T17:24:17;13.73;;;3.33;;
37284;SDS011;23172;53.550;9.964;2023-02-24T17:29:23;16.67;;;6.32;;
37284;SDS011;23172;53.550;9.964;2023-02-24T17:34:25;13.57;;;4.03;;
37284;SDS011;23172;53.550;9.964;2023-02-24T17:39:26;13.20;;;3.90;;
37284;SDS011;23172;53.550;9.964;2023-02-24T17:44:30;12.82;;;4.97;;
37284;SDS011;23172;53.550;9.964;2023-02-24T17:49:32;14.38;;;3.95;;
37284;SDS011;23172;53.550;9.964;2023-02-24T17:54:34;13.40;;;3.88;;
37284;SDS011;23172;53.550;9.964;2023-02-24T17:59:37;22.02;;;5.25;;
37284;SDS011;23172;53.550;9.964;2023-02-24T18:04:39;41.15;;;19.60;;
37284;SDS011;23172;53.550;9.964;2023-02-24T18:09:41;26.58;;;10.10;;
37284;SDS011;23172;53.550;9.964;2023-02-24T18:14:45;17.90;;;6.22;;
37284;SDS011;23172;53.550;9.964;2023-02-24T18:19:51;21.98;;;5.68;;
37284;SDS011;23172;53.550;9.964;2023-02-24T18:24:53;25.58;;;9.27;;
37284;SDS011;23172;53.550;9.964;2023-02-24T18:29:56;19.73;;;5.75;;
37284;SDS011;23172;53.550;9.964;2023-02-24T18:34:58;17.95;;;6.35;;
37284;SDS011;23172;53.550;9.964;2023-02-24T18:40:00;19.42;;;5.68;;
37284;SDS011;23172;53.550;9.964;2023-02-24T18:45:04;20.23;;;7.28;;
37284;SDS011;23172;53.550;9.964;2023-02-24T18:50:07;19.48;;;5.25;;
37284;SDS011;23172;53.550;9.964;2023-02-24T18:55:09;16.98;;;4.70;;
37284;SDS011;23172;53.550;9.964;2023-02-24T19:00:13;12.50;;;4.30;;
37284;SDS011;23172;53.550;9.964;2023-02-24T19:05:16;14.73;;;4.70;;
37284;SDS011;23172;53.550;9.964;2023-02-24T19:10:19;24.60;;;6.10;;
37284;SDS011;23172;53.550;9.964;2023-02-24T19:15:22;14.65;;;4.70;;
37284;SDS011;23172;53.550;9.964;2023-02-24T19:20:26;14.57;;;4.47;;
37284;SDS011;23172;53.550;9.964;2023-02-24T19:25:28;20.50;;;5.47;;
37284;SDS011;23172;53.550;9.964;2023-02-24T19:30:32;18.05;;;5.50;;
37284;SDS011;23172;53.550;9.964;2023-02-24T19:35:34;18.15;;;6.50;;
37284;SDS011;23172;53.550;9.964;2023-02-24T19:40:39;19.00;;;4.57;;
37284;SDS011;23172;53.550;9.964;2023-02-24T19:45:42;22.48;;;5.97;;
37284;SDS011;23172;53.550;9.964;2023-02-24T19:50:44;17.00;;;4.68;;
37284;SDS011;23172;53.550;9.964;2023-02-24T19:55:47;16.25;;;4.72;;
37284;SDS011;23172;53.550;9.964;2023-02-24T20:00:50;15.32;;;5.07;;
37284;SDS011;23172;53.550;9.964;2023-02-24T20:05:52;16.42;;;4.55;;
37284;SDS011;23172;53.550;9.964;2023-02-24T20:10:58;18.38;;;5.15;;
37284;SDS011;23172;53.550;9.964;2023-02-24T20:16:05;16.90;;;4.03;;
37284;SDS011;23172;53.550;9.964;2023-02-24T20:21:09;15.88;;;6.18;;
37284;SDS011;23172;53.550;9.964;2023-02-24T20:26:11;13.20;;;4.45;;
37284;SDS011;23172;53.550;9.964;2023-02-24T20:31:16;13.50;;;4.38;;
37284;SDS011;23172;53.550;9.964;2023-02-24T20:36:19;14.27;;;4.35;;
37284;SDS011;23172;53.550;9.964;2023-02-24T20:41:23;10.20;;;4.03;;
37284;SDS011;23172;53.550;9.964;2023-02-24T20:46:28;11.68;;;3.83;;
37284;SDS011;23172;53.550;9.964;2023-02-24T20:51:32;16.88;;;4.35;;
37284;SDS011;23172;53.550;9.964;2023-02-24T20:56:35;13.73;;;4.05;;
37284;SDS011;23172;53.550;9.964;2023-02-24T21:01:39;16.85;;;4.38;;
37284;SDS011;23172;53.550;9.964;2023-02-24T21:06:42;14.45;;;4.22;;
37284;SDS011;23172;53.550;9.964;2023-02-24T21:11:45;10.18;;;4.28;;
37284;SDS011;23172;53.550;9.964;2023-02-24T21:16:48;13.30;;;3.67;;
37284;SDS011;23172;53.550;9.964;2023-02-24T21:21:50;12.60;;;3.05;;
37284;SDS011;23172;53.550;9.964;2023-02-24T21:26:52;10.07;;;3.30;;
37284;SDS011;23172;53.550;9.964;2023-02-24T21:31:55;12.88;;;3.75;;
37284;SDS011;23172;53.550;9.964;2023-02-24T21:36:58;11.80;;;2.50;;
37284;SDS011;23172;53.550;9.964;2023-02-24T21:42:00;10.43;;;2.90;;
37284;SDS011;23172;53.550;9.964;2023-02-24T21:47:03;10.15;;;2.63;;
37284;SDS011;23172;53.550;9.964;2023-02-24T21:52:06;5.22;;;1.70;;
37284;SDS011;23172;53.550;9.964;2023-02-24T21:57:10;4.82;;;1.60;;
37284;SDS011;23172;53.550;9.964;2023-02-24T22:02:13;3.70;;;1.40;;
37284;SDS011;23172;53.550;9.964;2023-02-24T22:07:16;3.15;;;1.02;;
37284;SDS011;23172;53.550;9.964;2023-02-24T22:12:18;3.20;;;1.20;;
37284;SDS011;23172;53.550;9.964;2023-02-24T22:17:21;2.55;;;0.93;;
37284;SDS011;23172;53.550;9.964;2023-02-24T22:22:23;3.20;;;1.45;;
37284;SDS011;23172;53.550;9.964;2023-02-24T22:27:26;2.85;;;1.10;;
37284;SDS011;23172;53.550;9.964;2023-02-24T22:32:30;2.70;;;1.30;;
37284;SDS011;23172;53.550;9.964;2023-02-24T22:37:32;4.40;;;1.30;;
37284;SDS011;23172;53.550;9.964;2023-02-24T22:42:34;3.65;;;1.73;;
37284;SDS011;23172;53.550;9.964;2023-02-24T22:47:37;3.35;;;2.10;;
37284;SDS011;23172;53.550;9.964;2023-02-24T22:52:39;3.70;;;1.30;;
37284;SDS011;23172;53.550;9.964;2023-02-24T22:57:40;3.22;;;1.40;;
37284;SDS011;23172;53.550;9.964;2023-02-24T23:02:44;2.05;;;1.00;;
37284;SDS011;23172;53.550;9.964;2023-02-24T23:07:46;5.07;;;1.40;;
37284;SDS011;23172;53.550;9.964;2023-02-24T23:12:48;2.45;;;1.15;;
37284;SDS011;23172;53.550;9.964;2023-02-24T23:17:51;1.35;;;1.10;;
37284;SDS011;23172;53.550;9.964;2023-02-24T23:22:54;2.25;;;1.13;;
37284;SDS011;23172;53.550;9.964;2023-02-24T23:27:56;2.33;;;1.02;;
37284;SDS011;23172;53.550;9.964;2023-02-24T23:32:59;1.55;;;1.00;;
37284;SDS011;23172;53.550;9.964;2023-02-24T23:38:02;2.50;;;1.33;;
37284;SDS011;23172;53.550;9.964;2023-02-24T23:43:03;2.90;;;1.30;;
37284;SDS011;23172;53.550;9.964;2023-02-24T23:48:07;2.88;;;1.70;;
37284;SDS011;23172;53.550;9.964;2023-02-24T23:53:10;3.63;;;1.20;;
37284;SDS011;23172;53.550;9.964;2023-02-24T23:58:12;2.28;;;1.42;;
